sensor_id;sensor_type;location;lat;lon;timestamp;P1;durP1;ratioP1;P2;durP2;ratioP2
47856;SDS011;33618;49.972;8.242;2023-05-10T00:00:24;1.45;;;0.50;;
47856;SDS011;33618;49.972;8.242;2023-05-10T00:02:51;0.55;;;0.40;;
47856;SDS011;33618;49.972;8.242;2023-05-10T00:05:19;0.40;;;0.40;;
47856;SDS011;33618;49.972;8.242;2023-05-10T00:07:45;1.70;;;0.40;;
47856;SDS011;33618;49.972;8.242;2023-05-10T00:10:12;0.40;;;0.40;;
47856;SDS011;33618;49.972;8.242;2023-05-10T00:12:39;0.50;;;0.50;;
47856;SDS011;33618;49.972;8.242;2023-05-10T00:15:07;0.40;;;0.40;;
47856;SDS011;33618;49.972;8.242;2023-05-10T00:17:34;0.85;;;0.43;;
47856;SDS011;33618;49.972;8.242;2023-05-10T00:20:01;1.55;;;0.40;;
47856;SDS011;33618;49.972;8.242;2023-05-10T00:22:31;1.30;;;0.50;;
47856;SDS011;33618;49.972;8.242;2023-05-10T00:24:58;0.95;;;0.40;;
47856;SDS011;33618;49.972;8.242;2023-05-10T00:27:25;0.50;;;0.50;;
47856;SDS011;33618;49.972;8.242;2023-05-10T00:29:52;0.77;;;0.40;;
47856;SDS011;33618;49.972;8.242;2023-05-10T00:32:19;0.50;;;0.50;;
47856;SDS011;33618;49.972;8.242;2023-05-10T00:34:46;0.50;;;0.50;;
47856;SDS011;33618;49.972;8.242;2023-05-10T00:37:13;0.50;;;0.50;;
47856;SDS011;33618;49.972;8.242;2023-05-10T00:39:40;0.93;;;0.60;;
47856;SDS011;33618;49.972;8.242;2023-05-10T00:42:07;0.40;;;0.40;;
47856;SDS011;33618;49.972;8.242;2023-05-10T00:44:34;0.52;;;0.52;;
47856;SDS011;33618;49.972;8.242;2023-05-10T00:47:00;0.90;;;0.70;;
47856;SDS011;33618;49.972;8.242;2023-05-10T00:49:27;0.68;;;0.68;;
47856;SDS011;33618;49.972;8.242;2023-05-10T00:51:55;1.88;;;0.73;;
47856;SDS011;33618;49.972;8.242;2023-05-10T00:54:22;1.70;;;0.70;;
47856;SDS011;33618;49.972;8.242;2023-05-10T00:56:49;1.30;;;0.70;;
47856;SDS011;33618;49.972;8.242;2023-05-10T00:59:16;4.40;;;0.70;;
47856;SDS011;33618;49.972;8.242;2023-05-10T01:01:44;1.35;;;0.60;;
47856;SDS011;33618;49.972;8.242;2023-05-10T01:04:12;0.50;;;0.50;;
47856;SDS011;33618;49.972;8.242;2023-05-10T01:06:40;1.05;;;0.60;;
47856;SDS011;33618;49.972;8.242;2023-05-10T01:09:07;2.22;;;0.52;;
47856;SDS011;33618;49.972;8.242;2023-05-10T01:11:34;0.70;;;0.70;;
47856;SDS011;33618;49.972;8.242;2023-05-10T01:14:02;0.60;;;0.60;;
47856;SDS011;33618;49.972;8.242;2023-05-10T01:16:37;0.50;;;0.50;;
47856;SDS011;33618;49.972;8.242;2023-05-10T01:19:22;0.90;;;0.60;;
47856;SDS011;33618;49.972;8.242;2023-05-10T01:22:04;1.55;;;0.60;;
47856;SDS011;33618;49.972;8.242;2023-05-10T01:33:19;0.43;;;0.43;;
47856;SDS011;33618;49.972;8.242;2023-05-10T01:38:35;0.50;;;0.50;;
47856;SDS011;33618;49.972;8.242;2023-05-10T01:47:35;4.82;;;0.60;;
47856;SDS011;33618;49.972;8.242;2023-05-10T01:50:06;2.20;;;0.50;;
47856;SDS011;33618;49.972;8.242;2023-05-10T01:52:41;0.60;;;0.60;;
47856;SDS011;33618;49.972;8.242;2023-05-10T01:55:13;1.15;;;0.60;;
47856;SDS011;33618;49.972;8.242;2023-05-10T01:57:43;4.68;;;0.60;;
47856;SDS011;33618;49.972;8.242;2023-05-10T02:00:12;2.03;;;0.70;;
47856;SDS011;33618;49.972;8.242;2023-05-10T02:02:42;0.60;;;0.60;;
47856;SDS011;33618;49.972;8.242;2023-05-10T02:05:13;0.77;;;0.68;;
47856;SDS011;33618;49.972;8.242;2023-05-10T02:07:41;0.60;;;0.60;;
47856;SDS011;33618;49.972;8.242;2023-05-10T02:10:09;1.55;;;0.73;;
47856;SDS011;33618;49.972;8.242;2023-05-10T02:12:39;1.13;;;0.80;;
47856;SDS011;33618;49.972;8.242;2023-05-10T02:15:08;0.70;;;0.70;;
47856;SDS011;33618;49.972;8.242;2023-05-10T02:17:37;1.83;;;0.80;;
47856;SDS011;33618;49.972;8.242;2023-05-10T02:20:06;2.28;;;0.80;;
47856;SDS011;33618;49.972;8.242;2023-05-10T02:22:35;0.88;;;0.75;;
47856;SDS011;33618;49.972;8.242;2023-05-10T02:25:02;0.70;;;0.70;;
47856;SDS011;33618;49.972;8.242;2023-05-10T02:27:30;1.38;;;0.90;;
47856;SDS011;33618;49.972;8.242;2023-05-10T02:29:57;3.08;;;1.60;;
47856;SDS011;33618;49.972;8.242;2023-05-10T02:32:25;0.95;;;0.77;;
47856;SDS011;33618;49.972;8.242;2023-05-10T02:34:53;0.70;;;0.70;;
47856;SDS011;33618;49.972;8.242;2023-05-10T02:37:21;2.40;;;0.75;;
47856;SDS011;33618;49.972;8.242;2023-05-10T02:39:51;0.63;;;0.63;;
47856;SDS011;33618;49.972;8.242;2023-05-10T02:42:22;1.52;;;0.70;;
47856;SDS011;33618;49.972;8.242;2023-05-10T02:44:53;0.85;;;0.60;;
47856;SDS011;33618;49.972;8.242;2023-05-10T02:47:22;0.70;;;0.70;;
47856;SDS011;33618;49.972;8.242;2023-05-10T02:49:49;1.85;;;0.60;;
47856;SDS011;33618;49.972;8.242;2023-05-10T02:52:21;2.63;;;1.15;;
47856;SDS011;33618;49.972;8.242;2023-05-10T02:54:58;0.60;;;0.60;;
47856;SDS011;33618;49.972;8.242;2023-05-10T02:57:30;0.63;;;0.63;;
47856;SDS011;33618;49.972;8.242;2023-05-10T03:00:03;1.38;;;0.60;;
47856;SDS011;33618;49.972;8.242;2023-05-10T03:02:31;0.70;;;0.70;;
47856;SDS011;33618;49.972;8.242;2023-05-10T03:04:58;3.63;;;0.90;;
47856;SDS011;33618;49.972;8.242;2023-05-10T03:07:25;1.95;;;0.90;;
47856;SDS011;33618;49.972;8.242;2023-05-10T03:09:51;1.70;;;0.95;;
47856;SDS011;33618;49.972;8.242;2023-05-10T03:15:06;2.45;;;0.90;;
47856;SDS011;33618;49.972;8.242;2023-05-10T03:20:41;0.88;;;0.88;;
47856;SDS011;33618;49.972;8.242;2023-05-10T03:26:58;0.90;;;0.90;;
47856;SDS011;33618;49.972;8.242;2023-05-10T03:33:16;0.80;;;0.80;;
47856;SDS011;33618;49.972;8.242;2023-05-10T03:35:43;2.72;;;0.93;;
47856;SDS011;33618;49.972;8.242;2023-05-10T03:38:13;2.17;;;1.00;;
47856;SDS011;33618;49.972;8.242;2023-05-10T03:44:01;2.17;;;1.25;;
47856;SDS011;33618;49.972;8.242;2023-05-10T03:50:10;1.90;;;1.10;;
47856;SDS011;33618;49.972;8.242;2023-05-10T03:52:38;3.85;;;1.20;;
47856;SDS011;33618;49.972;8.242;2023-05-10T03:55:07;1.48;;;1.08;;
47856;SDS011;33618;49.972;8.242;2023-05-10T03:57:37;1.95;;;1.30;;
47856;SDS011;33618;49.972;8.242;2023-05-10T04:00:07;1.70;;;1.10;;
47856;SDS011;33618;49.972;8.242;2023-05-10T04:02:40;2.97;;;1.05;;
47856;SDS011;33618;49.972;8.242;2023-05-10T04:05:11;1.48;;;0.90;;
47856;SDS011;33618;49.972;8.242;2023-05-10T04:07:39;1.23;;;1.05;;
47856;SDS011;33618;49.972;8.242;2023-05-10T04:10:08;3.20;;;1.08;;
47856;SDS011;33618;49.972;8.242;2023-05-10T04:12:42;1.30;;;1.20;;
47856;SDS011;33618;49.972;8.242;2023-05-10T04:15:10;4.90;;;1.30;;
47856;SDS011;33618;49.972;8.242;2023-05-10T04:17:38;1.00;;;1.00;;
47856;SDS011;33618;49.972;8.242;2023-05-10T04:20:18;2.63;;;1.30;;
47856;SDS011;33618;49.972;8.242;2023-05-10T04:22:47;1.00;;;1.00;;
47856;SDS011;33618;49.972;8.242;2023-05-10T04:25:17;1.50;;;1.20;;
47856;SDS011;33618;49.972;8.242;2023-05-10T04:27:47;1.20;;;1.10;;
47856;SDS011;33618;49.972;8.242;2023-05-10T04:30:14;1.88;;;1.35;;
47856;SDS011;33618;49.972;8.242;2023-05-10T04:32:41;2.80;;;1.20;;
47856;SDS011;33618;49.972;8.242;2023-05-10T04:35:08;1.10;;;1.10;;
47856;SDS011;33618;49.972;8.242;2023-05-10T04:37:37;2.15;;;1.20;;
47856;SDS011;33618;49.972;8.242;2023-05-10T04:40:04;1.75;;;1.20;;
47856;SDS011;33618;49.972;8.242;2023-05-10T04:42:32;2.05;;;1.38;;
47856;SDS011;33618;49.972;8.242;2023-05-10T04:45:03;2.55;;;1.30;;
47856;SDS011;33618;49.972;8.242;2023-05-10T04:47:33;3.72;;;1.45;;
47856;SDS011;33618;49.972;8.242;2023-05-10T04:50:01;1.45;;;1.35;;
47856;SDS011;33618;49.972;8.242;2023-05-10T04:52:28;3.42;;;1.58;;
47856;SDS011;33618;49.972;8.242;2023-05-10T04:54:56;1.60;;;1.50;;
47856;SDS011;33618;49.972;8.242;2023-05-10T04:57:23;1.92;;;1.63;;
47856;SDS011;33618;49.972;8.242;2023-05-10T05:00:00;6.53;;;1.60;;
47856;SDS011;33618;49.972;8.242;2023-05-10T05:02:35;2.17;;;1.77;;
47856;SDS011;33618;49.972;8.242;2023-05-10T05:05:03;1.83;;;1.60;;
47856;SDS011;33618;49.972;8.242;2023-05-10T05:07:30;2.53;;;1.95;;
47856;SDS011;33618;49.972;8.242;2023-05-10T05:10:00;2.45;;;1.73;;
47856;SDS011;33618;49.972;8.242;2023-05-10T05:12:27;3.20;;;1.60;;
47856;SDS011;33618;49.972;8.242;2023-05-10T05:14:57;2.20;;;2.00;;
47856;SDS011;33618;49.972;8.242;2023-05-10T05:18:07;4.55;;;1.70;;
47856;SDS011;33618;49.972;8.242;2023-05-10T05:21:17;2.28;;;1.63;;
47856;SDS011;33618;49.972;8.242;2023-05-10T05:24:29;3.33;;;1.85;;
47856;SDS011;33618;49.972;8.242;2023-05-10T05:27:48;2.80;;;1.85;;
47856;SDS011;33618;49.972;8.242;2023-05-10T05:31:09;5.22;;;1.75;;
47856;SDS011;33618;49.972;8.242;2023-05-10T07:33:41;3.00;;;1.80;;
47856;SDS011;33618;49.972;8.242;2023-05-10T07:36:16;2.85;;;1.85;;
47856;SDS011;33618;49.972;8.242;2023-05-10T08:34:53;6.78;;;1.80;;
47856;SDS011;33618;49.972;8.242;2023-05-10T08:37:25;2.95;;;1.60;;
47856;SDS011;33618;49.972;8.242;2023-05-10T08:40:06;1.80;;;1.50;;
47856;SDS011;33618;49.972;8.242;2023-05-10T08:42:36;2.10;;;1.30;;
47856;SDS011;33618;49.972;8.242;2023-05-10T08:46:03;4.60;;;2.00;;
47856;SDS011;33618;49.972;8.242;2023-05-10T08:48:54;2.42;;;1.90;;
47856;SDS011;33618;49.972;8.242;2023-05-10T08:51:22;3.35;;;1.85;;
47856;SDS011;33618;49.972;8.242;2023-05-10T08:53:58;4.95;;;1.70;;
47856;SDS011;33618;49.972;8.242;2023-05-10T08:56:26;6.35;;;1.67;;
47856;SDS011;33618;49.972;8.242;2023-05-10T08:58:53;2.05;;;1.40;;
47856;SDS011;33618;49.972;8.242;2023-05-10T09:01:21;4.15;;;1.55;;
47856;SDS011;33618;49.972;8.242;2023-05-10T09:03:48;1.70;;;1.35;;
47856;SDS011;33618;49.972;8.242;2023-05-10T09:06:16;1.92;;;1.58;;
47856;SDS011;33618;49.972;8.242;2023-05-10T09:08:43;2.28;;;1.60;;
47856;SDS011;33618;49.972;8.242;2023-05-10T09:11:12;1.40;;;1.30;;
47856;SDS011;33618;49.972;8.242;2023-05-10T09:13:39;4.60;;;1.60;;
47856;SDS011;33618;49.972;8.242;2023-05-10T09:16:06;1.90;;;1.33;;
47856;SDS011;33618;49.972;8.242;2023-05-10T09:18:46;1.50;;;1.35;;
47856;SDS011;33618;49.972;8.242;2023-05-10T09:21:13;2.80;;;1.35;;
47856;SDS011;33618;49.972;8.242;2023-05-10T09:23:44;1.08;;;0.90;;
47856;SDS011;33618;49.972;8.242;2023-05-10T09:26:14;1.20;;;0.90;;
47856;SDS011;33618;49.972;8.242;2023-05-10T09:31:44;3.92;;;0.70;;
47856;SDS011;33618;49.972;8.242;2023-05-10T09:34:18;1.90;;;0.70;;
47856;SDS011;33618;49.972;8.242;2023-05-10T09:36:54;0.80;;;0.80;;
47856;SDS011;33618;49.972;8.242;2023-05-10T09:39:33;0.82;;;0.73;;
47856;SDS011;33618;49.972;8.242;2023-05-10T09:42:04;2.25;;;0.70;;
47856;SDS011;33618;49.972;8.242;2023-05-10T09:44:35;3.30;;;0.90;;
47856;SDS011;33618;49.972;8.242;2023-05-10T09:47:02;4.13;;;1.35;;
47856;SDS011;33618;49.972;8.242;2023-05-10T09:49:29;0.90;;;0.77;;
47856;SDS011;33618;49.972;8.242;2023-05-10T09:52:00;0.70;;;0.70;;
47856;SDS011;33618;49.972;8.242;2023-05-10T09:54:29;2.33;;;0.60;;
47856;SDS011;33618;49.972;8.242;2023-05-10T09:56:56;0.60;;;0.60;;
47856;SDS011;33618;49.972;8.242;2023-05-10T09:59:24;0.70;;;0.70;;
47856;SDS011;33618;49.972;8.242;2023-05-10T10:01:53;2.38;;;0.50;;
47856;SDS011;33618;49.972;8.242;2023-05-10T10:04:22;1.73;;;0.70;;
47856;SDS011;33618;49.972;8.242;2023-05-10T10:07:02;0.40;;;0.40;;
47856;SDS011;33618;49.972;8.242;2023-05-10T10:09:31;1.92;;;0.40;;
47856;SDS011;33618;49.972;8.242;2023-05-10T10:12:01;0.43;;;0.43;;
47856;SDS011;33618;49.972;8.242;2023-05-10T10:14:29;1.85;;;0.40;;
47856;SDS011;33618;49.972;8.242;2023-05-10T10:16:56;0.50;;;0.50;;
47856;SDS011;33618;49.972;8.242;2023-05-10T10:19:34;0.70;;;0.50;;
47856;SDS011;33618;49.972;8.242;2023-05-10T10:22:02;1.65;;;0.50;;
47856;SDS011;33618;49.972;8.242;2023-05-10T10:24:29;0.82;;;0.50;;
47856;SDS011;33618;49.972;8.242;2023-05-10T10:26:57;1.02;;;0.63;;
47856;SDS011;33618;49.972;8.242;2023-05-10T10:32:42;0.40;;;0.40;;
47856;SDS011;33618;49.972;8.242;2023-05-10T10:35:42;1.17;;;0.70;;
47856;SDS011;33618;49.972;8.242;2023-05-10T10:38:12;0.98;;;0.70;;
47856;SDS011;33618;49.972;8.242;2023-05-10T10:40:39;1.10;;;0.60;;
47856;SDS011;33618;49.972;8.242;2023-05-10T10:43:25;2.00;;;0.60;;
47856;SDS011;33618;49.972;8.242;2023-05-10T10:46:12;0.80;;;0.80;;
47856;SDS011;33618;49.972;8.242;2023-05-10T10:48:47;0.80;;;0.80;;
47856;SDS011;33618;49.972;8.242;2023-05-10T10:51:16;2.17;;;0.70;;
47856;SDS011;33618;49.972;8.242;2023-05-10T10:53:43;0.95;;;0.80;;
47856;SDS011;33618;49.972;8.242;2023-05-10T10:56:11;0.82;;;0.82;;
47856;SDS011;33618;49.972;8.242;2023-05-10T10:58:41;1.17;;;0.68;;
47856;SDS011;33618;49.972;8.242;2023-05-10T11:01:18;1.55;;;0.75;;
47856;SDS011;33618;49.972;8.242;2023-05-10T11:06:33;1.20;;;0.70;;
47856;SDS011;33618;49.972;8.242;2023-05-10T11:09:06;0.60;;;0.60;;
47856;SDS011;33618;49.972;8.242;2023-05-10T11:11:52;2.10;;;0.60;;
47856;SDS011;33618;49.972;8.242;2023-05-10T11:14:21;0.85;;;0.70;;
47856;SDS011;33618;49.972;8.242;2023-05-10T11:16:49;0.80;;;0.80;;
47856;SDS011;33618;49.972;8.242;2023-05-10T11:19:16;0.68;;;0.60;;
47856;SDS011;33618;49.972;8.242;2023-05-10T11:21:48;0.52;;;0.52;;
47856;SDS011;33618;49.972;8.242;2023-05-10T11:24:16;1.27;;;0.60;;
47856;SDS011;33618;49.972;8.242;2023-05-10T11:26:46;0.70;;;0.70;;
47856;SDS011;33618;49.972;8.242;2023-05-10T11:29:16;2.17;;;0.70;;
47856;SDS011;33618;49.972;8.242;2023-05-10T11:31:43;0.75;;;0.63;;
47856;SDS011;33618;49.972;8.242;2023-05-10T11:34:11;2.05;;;0.68;;
47856;SDS011;33618;49.972;8.242;2023-05-10T11:37:04;0.68;;;0.50;;
47856;SDS011;33618;49.972;8.242;2023-05-10T11:39:31;1.42;;;0.70;;
47856;SDS011;33618;49.972;8.242;2023-05-10T11:41:59;1.00;;;0.73;;
47856;SDS011;33618;49.972;8.242;2023-05-10T11:44:32;0.85;;;0.63;;
47856;SDS011;33618;49.972;8.242;2023-05-10T11:47:02;0.63;;;0.60;;
47856;SDS011;33618;49.972;8.242;2023-05-10T11:49:29;0.95;;;0.60;;
47856;SDS011;33618;49.972;8.242;2023-05-10T11:52:06;0.55;;;0.55;;
47856;SDS011;33618;49.972;8.242;2023-05-10T11:54:33;0.98;;;0.70;;
47856;SDS011;33618;49.972;8.242;2023-05-10T11:57:03;0.50;;;0.50;;
47856;SDS011;33618;49.972;8.242;2023-05-10T11:59:30;0.47;;;0.45;;
47856;SDS011;33618;49.972;8.242;2023-05-10T12:01:57;0.90;;;0.70;;
47856;SDS011;33618;49.972;8.242;2023-05-10T12:04:24;2.25;;;0.65;;
47856;SDS011;33618;49.972;8.242;2023-05-10T12:06:52;0.60;;;0.60;;
47856;SDS011;33618;49.972;8.242;2023-05-10T12:09:19;0.95;;;0.80;;
47856;SDS011;33618;49.972;8.242;2023-05-10T12:12:05;1.90;;;0.90;;
47856;SDS011;33618;49.972;8.242;2023-05-10T12:14:33;3.72;;;0.80;;
47856;SDS011;33618;49.972;8.242;2023-05-10T12:20:12;1.00;;;0.55;;
47856;SDS011;33618;49.972;8.242;2023-05-10T12:22:45;1.92;;;0.90;;
47856;SDS011;33618;49.972;8.242;2023-05-10T12:25:13;0.52;;;0.52;;
47856;SDS011;33618;49.972;8.242;2023-05-10T12:27:41;0.65;;;0.60;;
47856;SDS011;33618;49.972;8.242;2023-05-10T12:30:13;0.50;;;0.50;;
47856;SDS011;33618;49.972;8.242;2023-05-10T12:32:46;1.67;;;0.55;;
47856;SDS011;33618;49.972;8.242;2023-05-10T12:35:13;0.50;;;0.50;;
47856;SDS011;33618;49.972;8.242;2023-05-10T12:37:40;4.05;;;0.80;;
47856;SDS011;33618;49.972;8.242;2023-05-10T12:40:08;0.68;;;0.60;;
47856;SDS011;33618;49.972;8.242;2023-05-10T12:42:37;1.75;;;0.63;;
47856;SDS011;33618;49.972;8.242;2023-05-10T12:45:05;0.85;;;0.60;;
47856;SDS011;33618;49.972;8.242;2023-05-10T12:47:34;0.63;;;0.63;;
47856;SDS011;33618;49.972;8.242;2023-05-10T12:50:01;1.23;;;0.88;;
47856;SDS011;33618;49.972;8.242;2023-05-10T12:52:28;1.00;;;0.90;;
47856;SDS011;33618;49.972;8.242;2023-05-10T12:54:56;1.35;;;0.88;;
47856;SDS011;33618;49.972;8.242;2023-05-10T12:57:23;4.38;;;0.93;;
47856;SDS011;33618;49.972;8.242;2023-05-10T12:59:50;3.40;;;0.90;;
47856;SDS011;33618;49.972;8.242;2023-05-10T13:02:17;1.13;;;0.90;;
47856;SDS011;33618;49.972;8.242;2023-05-10T13:04:47;4.53;;;1.00;;
47856;SDS011;33618;49.972;8.242;2023-05-10T13:07:16;0.98;;;0.75;;
47856;SDS011;33618;49.972;8.242;2023-05-10T13:09:43;1.80;;;0.60;;
47856;SDS011;33618;49.972;8.242;2023-05-10T13:12:10;0.70;;;0.70;;
47856;SDS011;33618;49.972;8.242;2023-05-10T13:14:37;2.85;;;0.80;;
47856;SDS011;33618;49.972;8.242;2023-05-10T13:17:04;1.35;;;0.80;;
47856;SDS011;33618;49.972;8.242;2023-05-10T13:19:31;1.48;;;0.65;;
47856;SDS011;33618;49.972;8.242;2023-05-10T13:21:58;0.63;;;0.60;;
47856;SDS011;33618;49.972;8.242;2023-05-10T13:24:24;0.50;;;0.50;;
47856;SDS011;33618;49.972;8.242;2023-05-10T13:26:51;0.52;;;0.50;;
47856;SDS011;33618;49.972;8.242;2023-05-10T13:29:21;2.60;;;0.88;;
47856;SDS011;33618;49.972;8.242;2023-05-10T13:31:48;0.93;;;0.60;;
47856;SDS011;33618;49.972;8.242;2023-05-10T13:34:16;1.42;;;0.70;;
47856;SDS011;33618;49.972;8.242;2023-05-10T13:36:51;0.80;;;0.75;;
47856;SDS011;33618;49.972;8.242;2023-05-10T13:39:20;1.42;;;0.60;;
47856;SDS011;33618;49.972;8.242;2023-05-10T13:41:47;0.70;;;0.70;;
47856;SDS011;33618;49.972;8.242;2023-05-10T13:44:14;0.70;;;0.68;;
47856;SDS011;33618;49.972;8.242;2023-05-10T13:46:41;2.67;;;0.80;;
47856;SDS011;33618;49.972;8.242;2023-05-10T13:49:08;0.90;;;0.70;;
47856;SDS011;33618;49.972;8.242;2023-05-10T13:51:36;0.73;;;0.70;;
47856;SDS011;33618;49.972;8.242;2023-05-10T13:54:03;1.88;;;0.80;;
47856;SDS011;33618;49.972;8.242;2023-05-10T13:56:30;1.95;;;0.90;;
47856;SDS011;33618;49.972;8.242;2023-05-10T13:58:56;2.15;;;0.63;;
47856;SDS011;33618;49.972;8.242;2023-05-10T14:01:24;3.03;;;0.90;;
47856;SDS011;33618;49.972;8.242;2023-05-10T14:03:51;1.85;;;0.82;;
47856;SDS011;33618;49.972;8.242;2023-05-10T14:06:18;1.25;;;0.70;;
47856;SDS011;33618;49.972;8.242;2023-05-10T14:08:45;2.10;;;0.70;;
47856;SDS011;33618;49.972;8.242;2023-05-10T14:11:12;1.15;;;0.75;;
47856;SDS011;33618;49.972;8.242;2023-05-10T14:13:39;2.15;;;0.80;;
47856;SDS011;33618;49.972;8.242;2023-05-10T14:16:06;0.95;;;0.80;;
47856;SDS011;33618;49.972;8.242;2023-05-10T14:18:33;1.70;;;0.90;;
47856;SDS011;33618;49.972;8.242;2023-05-10T14:21:01;1.13;;;0.80;;
47856;SDS011;33618;49.972;8.242;2023-05-10T14:23:29;2.10;;;0.90;;
47856;SDS011;33618;49.972;8.242;2023-05-10T14:25:56;1.35;;;0.70;;
47856;SDS011;33618;49.972;8.242;2023-05-10T14:28:23;0.77;;;0.73;;
47856;SDS011;33618;49.972;8.242;2023-05-10T14:30:51;1.17;;;0.70;;
47856;SDS011;33618;49.972;8.242;2023-05-10T14:33:18;2.05;;;1.00;;
47856;SDS011;33618;49.972;8.242;2023-05-10T14:35:45;2.05;;;1.00;;
47856;SDS011;33618;49.972;8.242;2023-05-10T14:38:13;3.85;;;1.05;;
47856;SDS011;33618;49.972;8.242;2023-05-10T14:40:40;2.72;;;0.95;;
47856;SDS011;33618;49.972;8.242;2023-05-10T14:43:08;0.93;;;0.88;;
47856;SDS011;33618;49.972;8.242;2023-05-10T14:45:35;1.25;;;0.90;;
47856;SDS011;33618;49.972;8.242;2023-05-10T14:48:02;1.13;;;0.80;;
47856;SDS011;33618;49.972;8.242;2023-05-10T14:50:31;3.50;;;0.85;;
47856;SDS011;33618;49.972;8.242;2023-05-10T14:53:02;1.45;;;0.75;;
47856;SDS011;33618;49.972;8.242;2023-05-10T14:55:30;1.33;;;0.90;;
47856;SDS011;33618;49.972;8.242;2023-05-10T14:57:56;3.05;;;1.02;;
47856;SDS011;33618;49.972;8.242;2023-05-10T15:00:25;0.98;;;0.93;;
47856;SDS011;33618;49.972;8.242;2023-05-10T15:02:52;2.53;;;0.93;;
47856;SDS011;33618;49.972;8.242;2023-05-10T15:05:19;1.95;;;1.10;;
47856;SDS011;33618;49.972;8.242;2023-05-10T15:07:47;1.95;;;1.00;;
47856;SDS011;33618;49.972;8.242;2023-05-10T15:10:14;2.08;;;0.88;;
47856;SDS011;33618;49.972;8.242;2023-05-10T15:12:41;1.30;;;1.00;;
47856;SDS011;33618;49.972;8.242;2023-05-10T15:15:08;2.08;;;1.02;;
47856;SDS011;33618;49.972;8.242;2023-05-10T15:17:34;1.33;;;0.90;;
47856;SDS011;33618;49.972;8.242;2023-05-10T15:20:02;3.40;;;0.90;;
47856;SDS011;33618;49.972;8.242;2023-05-10T15:22:30;2.88;;;1.27;;
47856;SDS011;33618;49.972;8.242;2023-05-10T15:24:59;2.40;;;0.90;;
47856;SDS011;33618;49.972;8.242;2023-05-10T15:27:26;1.83;;;0.93;;
47856;SDS011;33618;49.972;8.242;2023-05-10T15:29:53;2.53;;;0.90;;
47856;SDS011;33618;49.972;8.242;2023-05-10T15:32:21;2.67;;;0.90;;
47856;SDS011;33618;49.972;8.242;2023-05-10T15:34:48;1.35;;;0.93;;
47856;SDS011;33618;49.972;8.242;2023-05-10T15:37:15;3.20;;;0.98;;
47856;SDS011;33618;49.972;8.242;2023-05-10T15:39:42;3.58;;;1.00;;
47856;SDS011;33618;49.972;8.242;2023-05-10T15:42:08;1.10;;;1.00;;
47856;SDS011;33618;49.972;8.242;2023-05-10T15:44:35;1.40;;;1.00;;
47856;SDS011;33618;49.972;8.242;2023-05-10T15:47:04;1.15;;;0.90;;
47856;SDS011;33618;49.972;8.242;2023-05-10T15:49:32;2.85;;;1.00;;
47856;SDS011;33618;49.972;8.242;2023-05-10T15:51:59;2.13;;;1.00;;
47856;SDS011;33618;49.972;8.242;2023-05-10T15:54:26;1.60;;;1.10;;
47856;SDS011;33618;49.972;8.242;2023-05-10T15:56:53;1.30;;;0.70;;
47856;SDS011;33618;49.972;8.242;2023-05-10T15:59:20;3.35;;;1.17;;
47856;SDS011;33618;49.972;8.242;2023-05-10T16:01:47;1.83;;;1.08;;
47856;SDS011;33618;49.972;8.242;2023-05-10T16:04:14;2.72;;;0.90;;
47856;SDS011;33618;49.972;8.242;2023-05-10T16:06:41;3.83;;;1.10;;
47856;SDS011;33618;49.972;8.242;2023-05-10T16:09:08;1.73;;;0.80;;
47856;SDS011;33618;49.972;8.242;2023-05-10T16:11:35;1.25;;;1.00;;
47856;SDS011;33618;49.972;8.242;2023-05-10T16:14:02;1.83;;;1.10;;
47856;SDS011;33618;49.972;8.242;2023-05-10T16:16:32;2.90;;;1.67;;
47856;SDS011;33618;49.972;8.242;2023-05-10T16:18:59;2.95;;;1.90;;
47856;SDS011;33618;49.972;8.242;2023-05-10T16:21:26;5.85;;;4.22;;
47856;SDS011;33618;49.972;8.242;2023-05-10T16:23:55;7.28;;;4.03;;
47856;SDS011;33618;49.972;8.242;2023-05-10T16:26:21;4.72;;;4.00;;
47856;SDS011;33618;49.972;8.242;2023-05-10T16:28:48;6.18;;;4.50;;
47856;SDS011;33618;49.972;8.242;2023-05-10T16:31:15;6.10;;;3.53;;
47856;SDS011;33618;49.972;8.242;2023-05-10T16:33:44;7.20;;;3.70;;
47856;SDS011;33618;49.972;8.242;2023-05-10T16:36:10;5.00;;;3.15;;
47856;SDS011;33618;49.972;8.242;2023-05-10T16:38:37;3.47;;;2.85;;
47856;SDS011;33618;49.972;8.242;2023-05-10T16:41:04;5.30;;;2.60;;
47856;SDS011;33618;49.972;8.242;2023-05-10T16:43:32;3.92;;;2.55;;
47856;SDS011;33618;49.972;8.242;2023-05-10T16:45:58;5.97;;;2.60;;
47856;SDS011;33618;49.972;8.242;2023-05-10T16:48:26;3.33;;;2.10;;
47856;SDS011;33618;49.972;8.242;2023-05-10T16:50:53;2.97;;;2.20;;
47856;SDS011;33618;49.972;8.242;2023-05-10T16:53:21;7.35;;;2.30;;
47856;SDS011;33618;49.972;8.242;2023-05-10T16:55:48;2.97;;;2.00;;
47856;SDS011;33618;49.972;8.242;2023-05-10T16:58:15;2.50;;;1.75;;
47856;SDS011;33618;49.972;8.242;2023-05-10T17:00:42;4.60;;;1.73;;
47856;SDS011;33618;49.972;8.242;2023-05-10T17:03:09;1.50;;;1.38;;
47856;SDS011;33618;49.972;8.242;2023-05-10T17:05:36;3.65;;;1.42;;
47856;SDS011;33618;49.972;8.242;2023-05-10T17:08:03;1.20;;;1.10;;
47856;SDS011;33618;49.972;8.242;2023-05-10T17:10:30;1.38;;;1.27;;
47856;SDS011;33618;49.972;8.242;2023-05-10T17:12:57;1.38;;;1.08;;
47856;SDS011;33618;49.972;8.242;2023-05-10T17:15:24;1.48;;;1.10;;
47856;SDS011;33618;49.972;8.242;2023-05-10T17:17:51;1.50;;;1.10;;
47856;SDS011;33618;49.972;8.242;2023-05-10T17:20:18;2.95;;;1.25;;
47856;SDS011;33618;49.972;8.242;2023-05-10T17:22:45;3.60;;;1.02;;
47856;SDS011;33618;49.972;8.242;2023-05-10T17:25:12;1.02;;;0.85;;
47856;SDS011;33618;49.972;8.242;2023-05-10T17:27:39;3.45;;;1.15;;
47856;SDS011;33618;49.972;8.242;2023-05-10T17:30:06;1.35;;;0.90;;
47856;SDS011;33618;49.972;8.242;2023-05-10T17:32:33;1.45;;;0.80;;
47856;SDS011;33618;49.972;8.242;2023-05-10T17:35:01;2.38;;;0.80;;
47856;SDS011;33618;49.972;8.242;2023-05-10T17:37:30;3.20;;;0.80;;
47856;SDS011;33618;49.972;8.242;2023-05-10T17:39:58;0.63;;;0.63;;
47856;SDS011;33618;49.972;8.242;2023-05-10T17:42:25;1.25;;;0.70;;
47856;SDS011;33618;49.972;8.242;2023-05-10T17:44:52;1.17;;;0.70;;
47856;SDS011;33618;49.972;8.242;2023-05-10T17:47:19;1.00;;;0.75;;
47856;SDS011;33618;49.972;8.242;2023-05-10T17:49:46;1.17;;;0.80;;
47856;SDS011;33618;49.972;8.242;2023-05-10T17:52:13;1.48;;;0.70;;
47856;SDS011;33618;49.972;8.242;2023-05-10T17:54:40;1.05;;;0.80;;
47856;SDS011;33618;49.972;8.242;2023-05-10T17:57:07;2.95;;;0.63;;
47856;SDS011;33618;49.972;8.242;2023-05-10T17:59:34;1.38;;;0.70;;
47856;SDS011;33618;49.972;8.242;2023-05-10T18:02:01;0.93;;;0.80;;
47856;SDS011;33618;49.972;8.242;2023-05-10T18:04:28;1.92;;;0.60;;
47856;SDS011;33618;49.972;8.242;2023-05-10T18:06:55;2.50;;;0.75;;
47856;SDS011;33618;49.972;8.242;2023-05-10T18:09:27;0.70;;;0.50;;
47856;SDS011;33618;49.972;8.242;2023-05-10T18:11:54;1.48;;;0.73;;
47856;SDS011;33618;49.972;8.242;2023-05-10T18:14:21;1.75;;;0.80;;
47856;SDS011;33618;49.972;8.242;2023-05-10T18:17:05;2.17;;;0.68;;
47856;SDS011;33618;49.972;8.242;2023-05-10T18:19:33;2.60;;;0.90;;
47856;SDS011;33618;49.972;8.242;2023-05-10T18:22:00;0.77;;;0.73;;
47856;SDS011;33618;49.972;8.242;2023-05-10T18:24:27;1.40;;;0.70;;
47856;SDS011;33618;49.972;8.242;2023-05-10T18:27:05;0.73;;;0.70;;
47856;SDS011;33618;49.972;8.242;2023-05-10T18:29:33;1.90;;;0.73;;
47856;SDS011;33618;49.972;8.242;2023-05-10T18:32:01;0.75;;;0.70;;
47856;SDS011;33618;49.972;8.242;2023-05-10T18:34:28;1.20;;;0.77;;
47856;SDS011;33618;49.972;8.242;2023-05-10T18:36:55;3.30;;;0.70;;
47856;SDS011;33618;49.972;8.242;2023-05-10T18:39:22;1.05;;;0.82;;
47856;SDS011;33618;49.972;8.242;2023-05-10T18:41:50;1.67;;;0.60;;
47856;SDS011;33618;49.972;8.242;2023-05-10T18:44:17;0.90;;;0.70;;
47856;SDS011;33618;49.972;8.242;2023-05-10T18:46:44;1.00;;;0.90;;
47856;SDS011;33618;49.972;8.242;2023-05-10T18:49:11;1.98;;;0.70;;